Time;durP1;ratioP1;P1;durP2;ratioP2;P2;SDS_P1;SDS_P2;PMS_P1;PMS_P2;Temp;Humidity;BMP_temperature;BMP_pressure;BME280_temperature;BME280_humidity;BME280_pressure;Samples;Min_cycle;Max_cycle;Signal;HPM_P1;HPM_P2
2023/08/22 00:04:22;;;;;;;11.53;6.07;;;;;;;21.21;67.09;100671.44;30611240;28;97071;-73
2023/08/22 00:19:22;;;;;;;;;;;;;;;21.18;68.06;100666.50;30569657;28;1152659;-82
2023/08/22 00:34:23;;;;;;;9.57;5.35;;;;;;;21.13;68.20;100659.06;30615082;28;96708;-77
2023/08/22 00:49:24;;;;;;;10.03;6.37;;;;;;;21.02;68.81;100653.59;30611676;28;98378;-81
2023/08/22 01:04:25;;;;;;;7.97;6.03;;;;;;;20.95;69.17;100649.09;30610766;28;96740;-75
2023/08/22 01:19:25;;;;;;;12.10;7.55;;;;;;;20.94;69.74;100644.72;30606384;28;96838;-75
2023/08/22 01:34:29;;;;;;;9.60;6.00;;;;;;;20.80;69.98;100626.97;30603881;28;97956;-79
2023/08/22 01:49:30;;;;;;;12.17;7.23;;;;;;;20.52;70.25;100622.91;30603492;28;97161;-72
2023/08/22 02:04:30;;;;;;;9.70;6.53;;;;;;;20.37;71.24;100619.78;30601262;28;98427;-77
2023/08/22 02:19:30;;;;;;;8.27;6.03;;;;;;;20.26;71.67;100629.44;30600286;28;96968;-72
2023/08/22 02:34:31;;;;;;;17.57;7.70;;;;;;;20.17;71.80;100626.19;30597773;28;102328;-83
2023/08/22 02:49:31;;;;;;;24.53;8.50;;;;;;;19.98;72.22;100625.31;30596857;28;97129;-75
2023/08/22 03:04:33;;;;;;;13.37;7.60;;;;;;;19.75;72.77;100596.19;30588717;28;97935;-73
2023/08/22 03:19:34;;;;;;;13.47;7.30;;;;;;;19.61;73.37;100596.31;30604493;28;98664;-76
2023/08/22 03:34:34;;;;;;;11.67;8.50;;;;;;;19.47;73.73;100585.81;30613735;28;96765;-88
2023/08/22 03:49:34;;;;;;;16.00;9.43;;;;;;;19.40;74.50;100577.78;30612129;28;98021;-84
2023/08/22 04:04:35;;;;;;;13.07;9.70;;;;;;;19.38;74.89;100571.75;30610295;28;97008;-85
2023/08/22 04:19:35;;;;;;;12.77;9.70;;;;;;;19.46;75.33;100574.16;30609036;28;104203;-75
2023/08/22 04:34:35;;;;;;;15.87;9.97;;;;;;;19.55;75.22;100567.44;30599972;28;97652;-75
2023/08/22 04:49:36;;;;;;;14.07;10.03;;;;;;;19.88;75.73;100563.66;30597566;28;106815;-81
2023/08/22 05:04:36;;;;;;;15.20;8.97;;;;;;;20.20;75.13;100579.78;30598919;28;97180;-78
2023/08/22 05:19:36;;;;;;;11.53;8.67;;;;;;;20.65;74.53;100580.50;30596773;28;111007;-72
2023/08/22 05:34:37;;;;;;;18.70;9.50;;;;;;;21.32;73.71;100582.31;30593378;28;97152;-72
2023/08/22 05:49:38;;;;;;;12.87;8.50;;;;;;;21.77;72.09;100592.66;30590519;28;101179;-70
2023/08/22 06:04:38;;;;;;;13.47;8.70;;;;;;;22.15;70.69;100572.38;30591070;28;97544;-70
2023/08/22 06:19:39;;;;;;;;;;;;;;;22.59;69.58;100570.03;30590171;28;97310;-70
2023/08/22 06:34:39;;;;;;;14.07;8.07;;;;;;;23.32;68.11;100575.78;30591306;28;97681;-76
2023/08/22 06:49:40;;;;;;;11.23;7.80;;;;;;;24.23;65.82;100562.19;30594554;28;97205;-70
2023/08/22 07:04:40;;;;;;;9.52;6.68;;;;;;;24.94;63.80;100553.22;30609924;28;105928;-81
2023/08/22 07:19:40;;;;;;;11.82;6.63;;;;;;;25.53;61.61;100544.22;30611546;28;96861;-84
2023/08/22 07:34:41;;;;;;;8.02;5.57;;;;;;;25.84;60.09;100538.97;30602932;28;97314;-73
2023/08/22 07:49:41;;;;;;;7.63;5.40;;;;;;;26.74;58.00;100521.63;30602034;28;98837;-74
2023/08/22 08:04:41;;;;;;;11.88;6.05;;;;;;;27.38;54.80;100527.72;30601151;28;97378;-71
2023/08/22 08:19:42;;;;;;;8.70;5.32;;;;;;;27.77;52.05;100518.06;30602079;28;108046;-77
2023/08/22 08:34:42;;;;;;;7.10;5.30;;;;;;;29.54;49.62;100523.91;30602308;28;97364;-73
2023/08/22 08:49:42;;;;;;;7.97;4.97;;;;;;;30.80;46.09;100513.88;30600387;28;97067;-72
2023/08/22 09:04:43;;;;;;;5.93;4.30;;;;;;;32.58;42.96;100495.44;30597928;28;97260;-72
2023/08/22 09:19:44;;;;;;;7.47;4.32;;;;;;;37.59;33.82;100482.03;30596250;28;97905;-81
2023/08/22 09:34:53;;;;;;;5.03;4.33;;;;;;;39.38;29.72;100479.28;30596072;28;98968;-72
2023/08/22 09:49:56;;;;;;;7.80;4.10;;;;;;;38.21;30.44;100464.50;30593301;28;97423;-72
2023/08/22 10:04:57;;;;;;;8.87;4.83;;;;;;;35.40;34.18;100446.91;30592773;28;96782;-72
2023/08/22 10:20:04;;;;;;;7.75;5.20;;;;;;;36.14;32.81;100435.59;30591913;28;96872;-70
2023/08/22 10:35:13;;;;;;;8.57;4.90;;;;;;;36.24;32.48;100418.56;30611494;28;96733;-78
2023/08/22 10:50:15;;;;;;;7.10;4.53;;;;;;;35.88;32.69;100411.63;30611452;28;97367;-73
2023/08/22 11:05:15;;;;;;;7.17;5.20;;;;;;;36.07;32.30;100391.78;30609407;28;97481;-72
2023/08/22 11:20:20;;;;;;;11.20;5.90;;;;;;;35.62;33.45;100390.41;30609317;28;97829;-69
2023/08/22 11:35:21;;;;;;;9.27;4.93;;;;;;;36.28;33.02;100368.75;30604517;28;97911;-72
2023/08/22 11:50:28;;;;;;;9.07;4.32;;;;;;;35.68;33.54;100357.81;30605746;28;97249;-70
2023/08/22 12:05:34;;;;;;;7.70;4.93;;;;;;;36.14;32.77;100338.53;30603178;28;97523;-70
2023/08/22 12:20:38;;;;;;;11.17;4.53;;;;;;;36.12;32.73;100318.69;30597634;28;97955;-72
2023/08/22 12:35:38;;;;;;;;;;;;;;;35.79;32.90;100309.16;30599968;28;97346;-75
2023/08/22 12:50:39;;;;;;;8.75;4.47;;;;;;;36.46;32.10;100292.59;30598886;28;98483;-71
2023/08/22 13:05:39;;;;;;;6.78;4.30;;;;;;;35.94;31.75;100273.66;30595769;28;97506;-69
2023/08/22 13:20:39;;;;;;;5.60;3.45;;;;;;;35.49;31.66;100264.09;30596974;28;98288;-69
2023/08/22 13:35:40;;;;;;;7.38;3.65;;;;;;;34.90;32.66;100265.72;30592495;28;96854;-73
2023/08/22 13:50:40;;;;;;;5.88;3.67;;;;;;;34.23;33.30;100237.59;30591551;28;97313;-72
2023/08/22 14:05:40;;;;;;;5.35;3.90;;;;;;;33.47;35.16;100203.03;30587639;28;98537;-70
2023/08/22 14:20:43;;;;;;;5.55;3.72;;;;;;;32.22;37.23;100204.91;30590721;28;114584;-68
2023/08/22 14:35:43;;;;;;;7.03;3.67;;;;;;;31.71;38.46;100196.78;30589801;28;97320;-70
2023/08/22 14:50:44;;;;;;;8.25;5.65;;;;;;;32.75;37.25;100192.19;30585611;28;97196;-70
2023/08/22 15:05:44;;;;;;;6.43;3.67;;;;;;;31.83;38.19;100163.16;30580155;28;98401;-70
2023/08/22 15:20:45;;;;;;;6.43;3.88;;;;;;;31.46;39.52;100151.38;30601144;28;99531;-70
2023/08/22 15:35:46;;;;;;;8.48;4.38;;;;;;;30.96;43.69;100174.22;30591976;28;96874;-68
2023/08/22 15:50:47;;;;;;;14.03;6.53;;;;;;;29.97;47.99;100206.56;30590137;28;97600;-67
2023/08/22 16:05:47;;;;;;;10.02;6.03;;;;;;;27.88;52.65;100209.53;30591074;28;107842;-68
2023/08/22 16:20:47;;;;;;;8.52;5.85;;;;;;;27.16;54.29;100224.44;30593721;28;97513;-67
2023/08/22 16:35:54;;;;;;;7.63;5.25;;;;;;;24.82;57.68;100188.31;30598893;28;97480;-68
2023/08/22 16:50:54;;;;;;;7.97;4.93;;;;;;;24.41;60.11;100196.22;30600155;28;96969;-68
2023/08/22 17:05:54;;;;;;;7.53;5.38;;;;;;;24.01;62.06;100198.38;30600420;28;97413;-67
2023/08/22 17:20:55;;;;;;;7.35;4.82;;;;;;;23.48;63.15;100165.50;30598243;28;113282;-68
2023/08/22 17:35:55;;;;;;;9.02;5.25;;;;;;;22.83;65.91;100187.03;30596207;28;96901;-68
2023/08/22 17:50:56;;;;;;;12.18;8.15;;;;;;;22.39;67.97;100205.97;30595869;28;112859;-68
2023/08/22 18:05:59;;;;;;;11.70;9.73;;;;;;;22.04;69.59;100221.41;30594455;28;96830;-68
2023/08/22 18:21:03;;;;;;;9.63;6.50;;;;;;;22.02;70.84;100239.81;30592412;28;97242;-67
2023/08/22 18:36:15;;;;;;;7.40;5.80;;;;;;;21.95;71.21;100245.41;30590056;28;97700;-67
2023/08/22 18:51:15;;;;;;;5.97;4.07;;;;;;;21.95;71.92;100266.25;30605839;28;97491;-67
2023/08/22 19:06:16;;;;;;;7.22;4.95;;;;;;;22.20;71.87;100295.72;30613999;28;97668;-68
2023/08/22 19:21:16;;;;;;;6.63;5.20;;;;;;;22.59;71.37;100284.97;30608872;28;96930;-66
2023/08/22 19:36:16;;;;;;;;;;;;;;;22.86;71.02;100254.44;30609486;28;97339;-66
2023/08/22 19:51:16;;;;;;;16.67;11.23;;;;;;;22.77;70.71;100248.63;30609909;28;97245;-67
2023/08/22 20:06:17;;;;;;;16.40;13.35;;;;;;;22.61;71.14;100244.84;30604852;28;112339;-67
2023/08/22 20:21:17;;;;;;;14.75;6.90;;;;;;;22.77;71.38;100297.50;30601710;28;97381;-67
2023/08/22 20:36:17;;;;;;;7.72;5.55;;;;;;;22.90;71.16;100307.19;30603413;28;111172;-68
2023/08/22 20:51:18;;;;;;;9.52;7.15;;;;;;;22.87;71.04;100323.13;30604267;28;96704;-67
2023/08/22 21:06:18;;;;;;;7.72;5.60;;;;;;;22.64;71.12;100314.94;30600588;28;112880;-67
2023/08/22 21:21:18;;;;;;;8.88;5.65;;;;;;;22.46;71.01;100336.91;30598980;28;100434;-67
2023/08/22 21:36:18;;;;;;;;;;;;;;;22.23;71.16;100316.94;30599603;28;111280;-68
2023/08/22 21:51:19;;;;;;;8.43;5.57;;;;;;;21.93;71.49;100339.72;30599656;28;96775;-68
2023/08/22 22:06:20;;;;;;;14.50;5.55;;;;;;;21.75;71.19;100329.09;30597230;28;97410;-67
2023/08/22 22:21:20;;;;;;;7.28;4.50;;;;;;;21.57;71.07;100325.47;30596289;28;97193;-68
2023/08/22 22:36:20;;;;;;;11.43;4.50;;;;;;;21.47;70.55;100346.91;30594259;28;113080;-68
2023/08/22 22:51:21;;;;;;;10.33;4.73;;;;;;;21.25;70.04;100344.00;30593148;28;111943;-68
2023/08/22 23:06:21;;;;;;;7.40;3.67;;;;;;;21.02;69.76;100356.47;30592072;28;110831;-69
2023/08/22 23:21:21;;;;;;;6.07;3.30;;;;;;;20.79;69.00;100360.84;30590962;28;107747;-67
2023/08/22 23:36:22;;;;;;;6.43;3.37;;;;;;;20.67;68.86;100378.94;30602674;28;97382;-67
2023/08/22 23:51:22;;;;;;;6.60;3.10;;;;;;;20.55;68.36;100375.38;30609814;28;96978;-67
